createdAt,value
2022-09-29T00:01:16.999Z,10.90
2022-09-29T00:03:47.315Z,11.85
2022-09-29T00:06:18.976Z,12.20
2022-09-29T00:08:47.650Z,12.85
2022-09-29T00:11:17.476Z,12.55
2022-09-29T00:13:45.988Z,13.13
2022-09-29T00:16:14.497Z,13.18
2022-09-29T00:18:42.534Z,13.95
2022-09-29T00:21:15.218Z,13.23
2022-09-29T00:23:44.684Z,13.15
2022-09-29T00:26:17.904Z,12.90
2022-09-29T00:28:49.804Z,13.60
2022-09-29T00:31:17.960Z,13.60
2022-09-29T00:33:47.368Z,14.45
2022-09-29T00:36:17.572Z,13.73
2022-09-29T00:38:48.278Z,12.82
2022-09-29T00:41:19.022Z,13.65
2022-09-29T00:43:53.320Z,14.38
2022-09-29T00:46:25.953Z,14.63
2022-09-29T00:48:55.960Z,14.77
2022-09-29T00:51:25.426Z,14.48
2022-09-29T00:53:55.118Z,15.45
2022-09-29T00:56:23.591Z,14.73
2022-09-29T00:58:55.478Z,15.55
2022-09-29T01:01:24.534Z,17.17
2022-09-29T01:03:56.923Z,17.20
2022-09-29T01:06:28.186Z,17.20
2022-09-29T01:09:04.144Z,16.42
2022-09-29T01:11:32.660Z,17.30
2022-09-29T01:14:05.108Z,16.63
2022-09-29T01:16:34.386Z,15.73
2022-09-29T01:19:06.286Z,16.25
2022-09-29T01:21:42.969Z,16.15
2022-09-29T01:24:56.172Z,17.27
2022-09-29T01:27:46.140Z,16.08
2022-09-29T01:30:20.742Z,17.92
2022-09-29T01:33:13.432Z,17.45
2022-09-29T01:35:54.583Z,18.33
2022-09-29T01:38:53.167Z,19.20
2022-09-29T01:41:29.460Z,20.35
2022-09-29T01:44:03.323Z,21.77
2022-09-29T01:46:37.702Z,18.27
2022-09-29T01:49:08.548Z,17.13
2022-09-29T01:51:41.346Z,17.40
2022-09-29T01:54:15.516Z,17.10
2022-09-29T01:56:49.285Z,16.13
2022-09-29T01:59:23.588Z,16.30
2022-09-29T02:02:00.822Z,17.98
2022-09-29T02:04:34.304Z,17.17
2022-09-29T02:07:07.276Z,16.10
2022-09-29T02:09:40.333Z,16.77
2022-09-29T02:12:11.867Z,16.17
2022-09-29T02:14:43.772Z,18.15
2022-09-29T02:17:19.533Z,17.05
2022-09-29T02:19:53.679Z,18.33
2022-09-29T02:22:24.241Z,17.55
2022-09-29T02:24:56.694Z,17.75
2022-09-29T02:27:28.632Z,18.42
2022-09-29T02:29:58.644Z,17.20
2022-09-29T02:32:27.285Z,18.58
2022-09-29T02:34:59.085Z,17.38
2022-09-29T02:37:43.341Z,17.85
2022-09-29T02:40:23.055Z,17.83
2022-09-29T02:43:06.110Z,17.55
2022-09-29T02:45:42.598Z,17.48
2022-09-29T02:48:22.400Z,18.35
2022-09-29T02:51:00.291Z,19.48
2022-09-29T02:53:41.907Z,19.65
2022-09-29T02:56:23.062Z,18.63
2022-09-29T02:58:54.652Z,20.20
2022-09-29T03:01:22.707Z,20.67
2022-09-29T03:03:50.829Z,20.55
2022-09-29T03:06:21.563Z,20.08
2022-09-29T03:08:52.594Z,21.10
2022-09-29T03:11:20.560Z,21.42
2022-09-29T03:13:48.500Z,19.60
2022-09-29T03:16:16.566Z,20.25
2022-09-29T03:18:44.755Z,20.13
2022-09-29T03:21:12.738Z,20.75
2022-09-29T03:23:42.378Z,20.13
2022-09-29T03:26:12.524Z,20.13
2022-09-29T03:28:40.565Z,20.02
2022-09-29T03:31:10.446Z,19.40
2022-09-29T03:33:39.746Z,19.98
2022-09-29T03:36:11.788Z,21.27
2022-09-29T03:38:40.126Z,20.00
2022-09-29T03:41:09.533Z,21.17
2022-09-29T03:43:37.398Z,20.45
2022-09-29T03:46:05.988Z,21.25
2022-09-29T03:48:35.288Z,18.90
2022-09-29T03:51:03.864Z,21.33
2022-09-29T03:53:31.860Z,21.67
2022-09-29T03:55:59.829Z,19.48
2022-09-29T03:58:31.626Z,20.60
2022-09-29T04:00:59.851Z,22.30
2022-09-29T04:03:27.939Z,22.00
2022-09-29T04:05:55.970Z,20.98
2022-09-29T04:08:25.980Z,20.80
2022-09-29T04:10:53.864Z,21.02
2022-09-29T04:13:22.555Z,21.50
2022-09-29T04:15:52.046Z,22.10
2022-09-29T04:18:20.046Z,20.63
2022-09-29T04:20:48.616Z,20.83
2022-09-29T04:23:16.951Z,21.65
2022-09-29T04:25:46.138Z,21.55
2022-09-29T04:28:14.365Z,23.15
2022-09-29T04:30:42.384Z,22.33
2022-09-29T04:33:11.705Z,21.80
2022-09-29T04:35:39.918Z,22.58
2022-09-29T04:38:08.564Z,21.90
2022-09-29T04:40:36.866Z,21.05
2022-09-29T04:43:05.592Z,21.23
2022-09-29T04:45:34.499Z,22.10
2022-09-29T04:48:03.196Z,22.45
2022-09-29T04:50:32.978Z,24.85
2022-09-29T04:53:01.218Z,22.38
2022-09-29T04:55:29.196Z,21.63
2022-09-29T04:57:57.201Z,21.90
2022-09-29T05:00:25.281Z,23.05
2022-09-29T05:02:53.255Z,24.98
2022-09-29T05:05:21.702Z,22.38
2022-09-29T05:07:51.020Z,22.52
2022-09-29T05:10:21.250Z,23.58
2022-09-29T05:12:50.616Z,23.33
2022-09-29T05:15:24.796Z,22.98
2022-09-29T05:17:53.919Z,22.95
2022-09-29T05:20:21.934Z,21.60
2022-09-29T05:22:51.305Z,21.02
2022-09-29T05:25:19.331Z,20.60
2022-09-29T05:27:47.461Z,21.10
2022-09-29T05:30:15.572Z,21.38
2022-09-29T05:32:44.643Z,21.45
2022-09-29T05:35:12.856Z,20.75
2022-09-29T05:37:40.994Z,20.13
2022-09-29T05:40:11.239Z,21.48
2022-09-29T05:42:40.948Z,21.08
2022-09-29T05:45:10.919Z,23.50
2022-09-29T05:47:43.171Z,20.17
2022-09-29T05:50:12.089Z,20.73
2022-09-29T05:52:40.747Z,18.73
2022-09-29T05:55:11.028Z,22.30
2022-09-29T05:57:39.413Z,23.70
2022-09-29T06:00:09.204Z,24.85
2022-09-29T06:05:08.729Z,23.40
2022-09-29T06:07:36.758Z,23.98
2022-09-29T06:10:05.097Z,24.85
2022-09-29T06:12:37.280Z,21.83
2022-09-29T06:15:06.128Z,22.70
2022-09-29T06:17:34.690Z,21.50
2022-09-29T06:20:04.180Z,21.35
2022-09-29T06:22:32.613Z,21.77
2022-09-29T06:25:00.884Z,21.88
2022-09-29T06:27:29.283Z,20.42
2022-09-29T06:30:01.197Z,20.98
2022-09-29T06:32:29.425Z,22.23
2022-09-29T06:35:15.050Z,23.42
2022-09-29T06:37:46.514Z,20.33
2022-09-29T06:40:15.219Z,22.38
2022-09-29T06:42:43.144Z,20.85
2022-09-29T06:45:12.713Z,19.67
2022-09-29T06:47:40.705Z,21.23
2022-09-29T06:50:19.224Z,20.65
2022-09-29T06:52:59.702Z,20.88
2022-09-29T06:55:30.537Z,20.33
2022-09-29T06:58:02.984Z,22.33
2022-09-29T07:00:35.061Z,22.25
2022-09-29T07:03:03.593Z,21.02
2022-09-29T07:05:32.907Z,22.10
2022-09-29T07:08:01.601Z,22.52
2022-09-29T07:10:31.912Z,24.17
2022-09-29T07:13:02.483Z,23.20
2022-09-29T07:15:32.421Z,22.52
2022-09-29T07:18:03.496Z,24.65
2022-09-29T07:20:33.276Z,23.98
2022-09-29T07:23:01.392Z,23.45
2022-09-29T07:25:55.603Z,24.15
2022-09-29T07:28:18.047Z,23.73
2022-09-29T07:30:46.277Z,23.40
2022-09-29T07:33:17.166Z,25.52
2022-09-29T07:35:45.973Z,23.55
2022-09-29T07:38:14.180Z,23.67
2022-09-29T07:40:42.297Z,23.08
2022-09-29T07:43:10.460Z,24.60
2022-09-29T07:45:38.444Z,24.50
2022-09-29T07:48:09.586Z,26.13
2022-09-29T07:50:38.983Z,29.10
2022-09-29T07:53:06.964Z,29.95
2022-09-29T07:55:35.031Z,27.88
2022-09-29T07:58:03.007Z,26.75
2022-09-29T08:00:32.490Z,28.58
2022-09-29T08:03:03.014Z,28.92
2022-09-29T08:05:33.700Z,26.15
2022-09-29T08:08:04.104Z,24.10
2022-09-29T08:10:46.302Z,25.95
2022-09-29T08:13:17.682Z,24.65
2022-09-29T08:15:45.805Z,25.17
2022-09-29T08:18:13.807Z,23.58
2022-09-29T08:20:41.730Z,25.73
2022-09-29T08:23:11.363Z,23.08
2022-09-29T08:25:39.313Z,23.67
2022-09-29T08:28:07.537Z,23.98
2022-09-29T08:30:35.684Z,22.33
2022-09-29T08:33:03.999Z,22.45
2022-09-29T08:35:31.990Z,22.50
2022-09-29T08:37:59.967Z,23.08
2022-09-29T08:40:31.770Z,22.45
2022-09-29T08:43:06.794Z,23.10
2022-09-29T08:45:51.533Z,24.02
2022-09-29T08:48:28.875Z,23.75
2022-09-29T08:50:59.265Z,22.02
2022-09-29T08:53:33.341Z,21.98
2022-09-29T08:56:05.901Z,21.95
2022-09-29T08:58:39.585Z,21.85
2022-09-29T09:01:22.718Z,22.65
2022-09-29T09:04:04.261Z,22.13
2022-09-29T09:06:42.410Z,21.67
2022-09-29T09:09:43.455Z,22.42
2022-09-29T09:12:32.162Z,21.70
2022-09-29T09:15:20.114Z,22.30
2022-09-29T09:18:14.901Z,20.38
2022-09-29T09:20:46.214Z,20.48
2022-09-29T09:23:23.053Z,17.63
2022-09-29T09:25:54.292Z,16.88
2022-09-29T09:28:28.589Z,17.05
2022-09-29T09:31:02.478Z,20.67
2022-09-29T09:33:35.869Z,19.50
2022-09-29T09:36:09.916Z,19.67
2022-09-29T09:38:48.366Z,17.93
2022-09-29T09:41:21.140Z,18.10
2022-09-29T09:46:28.754Z,17.02
2022-09-29T09:49:05.059Z,15.80
2022-09-29T09:51:46.819Z,15.10
2022-09-29T09:54:23.535Z,15.52
2022-09-29T09:57:19.010Z,15.13
2022-09-29T10:00:06.189Z,17.25
2022-09-29T10:02:44.988Z,16.50
2022-09-29T10:05:15.049Z,15.77
2022-09-29T10:07:43.840Z,14.85
2022-09-29T10:10:17.808Z,15.68
2022-09-29T10:12:46.233Z,15.23
2022-09-29T10:15:22.993Z,19.33
2022-09-29T10:18:00.724Z,15.63
2022-09-29T10:20:37.854Z,15.30
2022-09-29T10:23:27.521Z,14.40
2022-09-29T10:25:59.609Z,14.52
2022-09-29T10:28:31.209Z,15.10
2022-09-29T10:31:00.952Z,13.52
2022-09-29T10:33:29.753Z,13.73
2022-09-29T10:36:11.596Z,13.13
2022-09-29T10:38:40.349Z,13.02
2022-09-29T10:41:09.488Z,14.60
2022-09-29T10:43:41.890Z,12.70
2022-09-29T10:46:37.315Z,13.38
2022-09-29T10:49:11.572Z,12.02
2022-09-29T10:51:41.410Z,13.40
2022-09-29T10:54:11.048Z,13.02
2022-09-29T10:56:48.331Z,13.65
2022-09-29T10:59:17.491Z,15.05
2022-09-29T11:01:50.435Z,15.93
2022-09-29T11:04:23.780Z,15.15
2022-09-29T11:06:52.794Z,12.90
2022-09-29T11:09:39.116Z,11.82
2022-09-29T11:12:22.781Z,12.82
2022-09-29T11:14:52.890Z,11.00
2022-09-29T11:17:25.498Z,11.00
2022-09-29T11:19:55.526Z,10.45
2022-09-29T11:22:56.317Z,10.82
2022-09-29T11:25:40.818Z,9.88
2022-09-29T11:28:30.438Z,12.23
2022-09-29T11:31:09.564Z,10.48
2022-09-29T11:33:49.365Z,10.95
2022-09-29T11:36:25.051Z,8.13
2022-09-29T11:39:04.081Z,7.78
2022-09-29T11:41:49.684Z,9.45
2022-09-29T11:44:52.783Z,10.05
2022-09-29T11:47:40.820Z,8.15
2022-09-29T11:50:29.958Z,9.60
2022-09-29T11:53:27.830Z,9.85
2022-09-29T11:56:18.844Z,10.27
2022-09-29T11:59:22.467Z,11.57
2022-09-29T12:02:02.857Z,9.40
2022-09-29T12:04:41.909Z,9.65
2022-09-29T12:07:26.816Z,9.52
2022-09-29T12:10:25.729Z,9.70
2022-09-29T12:13:02.431Z,9.70
2022-09-29T12:15:41.084Z,12.63
2022-09-29T12:18:14.360Z,10.88
2022-09-29T12:20:46.208Z,11.38
2022-09-29T12:23:19.232Z,11.57
2022-09-29T12:25:58.430Z,10.55
2022-09-29T12:28:31.578Z,10.07
2022-09-29T12:31:04.250Z,9.30
2022-09-29T12:33:38.434Z,9.70
2022-09-29T12:36:46.515Z,8.88
2022-09-29T12:39:25.098Z,7.70
2022-09-29T12:41:56.280Z,9.07
2022-09-29T12:44:30.929Z,8.18
2022-09-29T12:47:05.464Z,8.82
2022-09-29T12:49:39.936Z,7.32
2022-09-29T12:52:16.141Z,7.63
2022-09-29T12:54:52.094Z,7.15
2022-09-29T12:57:23.777Z,7.85
2022-09-29T12:59:57.938Z,7.72
2022-09-29T13:03:01.117Z,7.13
2022-09-29T13:06:06.150Z,7.55
2022-09-29T13:08:49.784Z,6.40
2022-09-29T13:11:37.791Z,5.57
2022-09-29T13:14:32.348Z,5.78
2022-09-29T13:17:18.047Z,5.65
2022-09-29T13:20:17.217Z,7.07
2022-09-29T13:23:02.488Z,5.82
2022-09-29T13:25:38.402Z,4.80
2022-09-29T13:28:26.402Z,5.60
2022-09-29T13:30:56.078Z,5.10
2022-09-29T13:33:26.029Z,5.65
2022-09-29T13:35:54.870Z,4.70
2022-09-29T13:38:25.385Z,5.20
2022-09-29T13:41:15.622Z,5.15
2022-09-29T13:44:24.849Z,4.63
2022-09-29T13:46:56.156Z,4.95
2022-09-29T13:49:31.925Z,4.95
2022-09-29T13:52:01.825Z,5.05
2022-09-29T13:54:35.247Z,7.35
2022-09-29T13:57:28.692Z,4.40
2022-09-29T14:00:25.737Z,5.53
2022-09-29T14:03:08.114Z,4.70
2022-09-29T14:05:47.535Z,5.28
2022-09-29T14:08:23.699Z,5.90
2022-09-29T14:10:56.266Z,4.40
2022-09-29T14:13:29.347Z,4.28
2022-09-29T14:16:35.338Z,4.85
2022-09-29T14:19:11.836Z,5.65
2022-09-29T14:21:55.095Z,8.55
2022-09-29T14:24:50.384Z,5.28
2022-09-29T14:27:38.789Z,5.50
2022-09-29T14:30:17.584Z,7.10
2022-09-29T14:32:53.854Z,5.93
2022-09-29T14:35:28.835Z,4.38
2022-09-29T14:38:03.419Z,4.45
2022-09-29T14:40:31.965Z,5.70
2022-09-29T14:43:16.910Z,4.63
2022-09-29T14:46:38.660Z,5.50
2022-09-29T14:50:05.960Z,4.65
2022-09-29T14:52:47.683Z,4.32
2022-09-29T14:55:20.415Z,3.85
2022-09-29T14:58:10.002Z,3.63
2022-09-29T15:00:54.126Z,3.03
2022-09-29T15:03:28.613Z,2.80
2022-09-29T15:06:12.101Z,5.03
2022-09-29T15:08:42.760Z,3.42
2022-09-29T15:11:28.715Z,3.20
2022-09-29T15:13:57.580Z,3.20
2022-09-29T15:16:33.975Z,4.05
2022-09-29T15:19:18.133Z,3.47
2022-09-29T15:21:56.799Z,4.03
2022-09-29T15:24:52.121Z,4.85
2022-09-29T15:27:22.017Z,5.50
2022-09-29T15:29:54.751Z,5.38
2022-09-29T15:32:25.842Z,4.15
2022-09-29T15:35:03.153Z,5.45
2022-09-29T15:37:59.484Z,3.50
2022-09-29T15:40:36.870Z,3.88
2022-09-29T15:43:20.193Z,5.45
2022-09-29T15:45:54.650Z,5.95
2022-09-29T15:48:22.705Z,5.07
2022-09-29T15:50:51.169Z,4.75
2022-09-29T15:53:20.048Z,5.60
2022-09-29T15:55:53.330Z,5.57
2022-09-29T15:58:44.629Z,6.32
2022-09-29T16:01:18.908Z,6.32
2022-09-29T16:03:51.918Z,3.90
2022-09-29T16:06:26.858Z,4.32
2022-09-29T16:08:59.403Z,4.72
2022-09-29T16:11:32.511Z,4.13
2022-09-29T16:14:03.369Z,4.50
2022-09-29T16:16:35.588Z,4.40
2022-09-29T16:19:10.676Z,5.25
2022-09-29T16:21:39.833Z,4.82
2022-09-29T16:24:14.918Z,5.38
2022-09-29T16:26:46.755Z,5.10
2022-09-29T16:29:29.682Z,5.65
2022-09-29T16:31:59.159Z,5.35
2022-09-29T16:34:32.705Z,4.63
2022-09-29T16:37:03.635Z,6.30
2022-09-29T16:39:34.661Z,6.53
2022-09-29T16:42:06.785Z,5.30
2022-09-29T16:44:37.139Z,5.00
2022-09-29T16:47:15.551Z,4.97
2022-09-29T16:49:48.378Z,5.50
2022-09-29T16:54:48.494Z,6.28
2022-09-29T16:57:25.320Z,6.30
2022-09-29T16:59:55.470Z,5.95
2022-09-29T17:02:24.638Z,6.68
2022-09-29T17:05:01.312Z,6.80
2022-09-29T17:07:30.189Z,9.02
2022-09-29T17:10:00.172Z,8.75
2022-09-29T17:12:31.080Z,7.78
2022-09-29T17:15:01.534Z,8.88
2022-09-29T17:17:30.455Z,9.10
2022-09-29T17:19:58.514Z,7.65
2022-09-29T17:22:32.255Z,7.65
2022-09-29T17:25:00.637Z,8.13
2022-09-29T17:27:48.511Z,8.40
2022-09-29T17:30:20.917Z,7.45
2022-09-29T17:32:49.676Z,9.20
2022-09-29T17:35:19.733Z,8.60
2022-09-29T17:37:48.560Z,10.30
2022-09-29T17:40:23.315Z,9.52
2022-09-29T17:42:52.882Z,12.15
2022-09-29T17:45:22.101Z,9.95
2022-09-29T17:47:50.495Z,10.38
2022-09-29T17:50:28.172Z,10.52
2022-09-29T17:52:56.443Z,10.73
2022-09-29T17:55:24.452Z,11.38
2022-09-29T17:57:54.361Z,12.15
2022-09-29T18:00:24.744Z,11.90
2022-09-29T18:02:57.417Z,12.50
2022-09-29T18:05:26.999Z,13.40
2022-09-29T18:07:59.082Z,13.20
2022-09-29T18:10:29.123Z,14.70
2022-09-29T18:12:58.773Z,13.82
2022-09-29T18:15:27.758Z,13.50
2022-09-29T18:18:01.676Z,14.60
2022-09-29T18:20:31.529Z,14.95
2022-09-29T18:23:02.158Z,15.77
2022-09-29T18:25:32.447Z,16.20
2022-09-29T18:28:02.733Z,16.20
2022-09-29T18:30:32.633Z,16.35
2022-09-29T18:33:02.945Z,17.23
2022-09-29T18:35:34.303Z,15.95
2022-09-29T18:38:03.341Z,16.95
2022-09-29T18:40:32.539Z,17.50
2022-09-29T18:43:03.288Z,18.33
2022-09-29T18:45:33.806Z,17.10
2022-09-29T18:48:04.507Z,19.75
2022-09-29T18:50:34.245Z,18.05
2022-09-29T18:53:02.775Z,16.35
2022-09-29T18:55:31.999Z,15.65
2022-09-29T18:58:01.975Z,13.10
2022-09-29T19:00:33.009Z,14.55
2022-09-29T19:03:02.768Z,13.35
2022-09-29T19:05:34.789Z,14.77
2022-09-29T19:08:05.280Z,17.23
2022-09-29T19:10:35.028Z,16.42
2022-09-29T19:13:15.542Z,15.77
2022-09-29T19:15:45.007Z,14.60
2022-09-29T19:18:23.474Z,16.75
2022-09-29T19:20:56.001Z,18.02
2022-09-29T19:23:24.288Z,18.02
2022-09-29T19:25:53.889Z,19.98
2022-09-29T19:28:27.004Z,18.63
2022-09-29T19:30:56.010Z,18.90
2022-09-29T19:33:24.549Z,17.75
2022-09-29T19:35:55.382Z,17.52
2022-09-29T19:38:23.845Z,17.85
2022-09-29T19:40:52.486Z,17.10
2022-09-29T19:43:23.145Z,17.48
2022-09-29T19:45:52.744Z,17.48
2022-09-29T19:48:23.296Z,18.23
2022-09-29T19:51:15.309Z,18.42
2022-09-29T19:53:47.255Z,18.55
2022-09-29T19:56:18.166Z,18.98
2022-09-29T19:58:46.209Z,19.00
2022-09-29T20:01:15.658Z,19.50
2022-09-29T20:03:48.024Z,18.67
2022-09-29T20:06:18.474Z,19.15
2022-09-29T20:08:48.937Z,20.88
2022-09-29T20:11:17.261Z,19.75
2022-09-29T20:13:45.365Z,19.48
2022-09-29T20:16:15.189Z,20.30
2022-09-29T20:18:46.728Z,21.70
2022-09-29T20:21:17.211Z,19.48
2022-09-29T20:23:45.242Z,20.30
2022-09-29T20:26:13.494Z,19.92
2022-09-29T20:28:41.557Z,20.90
2022-09-29T20:31:09.583Z,19.55
2022-09-29T20:33:43.082Z,18.85
2022-09-29T20:36:11.080Z,25.60
2022-09-29T20:38:41.413Z,23.85
2022-09-29T20:41:10.224Z,21.63
2022-09-29T20:43:38.454Z,19.42
2022-09-29T20:46:08.184Z,19.88
2022-09-29T20:48:37.841Z,21.90
2022-09-29T20:51:09.799Z,20.00
2022-09-29T20:53:40.441Z,20.77
2022-09-29T20:56:11.345Z,21.83
2022-09-29T20:58:41.653Z,23.00
2022-09-29T21:01:12.701Z,24.23
2022-09-29T21:03:41.200Z,24.80
2022-09-29T21:06:10.957Z,24.70
2022-09-29T21:08:40.759Z,25.05
2022-09-29T21:11:09.885Z,22.25
2022-09-29T21:13:38.467Z,25.25
2022-09-29T21:16:07.412Z,26.75
2022-09-29T21:18:35.993Z,27.83
2022-09-29T21:21:08.333Z,26.98
2022-09-29T21:23:39.412Z,24.48
2022-09-29T21:26:14.293Z,25.42
2022-09-29T21:28:45.051Z,25.25
2022-09-29T21:31:14.890Z,25.48
2022-09-29T21:33:43.117Z,25.67
2022-09-29T21:36:13.154Z,25.13
2022-09-29T21:38:43.751Z,25.40
2022-09-29T21:41:16.021Z,24.67
2022-09-29T21:43:45.118Z,24.63
2022-09-29T21:46:15.055Z,24.17
2022-09-29T21:48:43.966Z,24.27
2022-09-29T21:51:14.446Z,24.15
2022-09-29T21:53:44.481Z,26.08
2022-09-29T21:56:14.456Z,27.00
2022-09-29T21:58:43.162Z,24.90
2022-09-29T22:01:12.142Z,26.33
2022-09-29T22:03:44.408Z,23.88
2022-09-29T22:06:14.043Z,24.52
2022-09-29T22:08:43.821Z,25.08
2022-09-29T22:11:13.735Z,25.50
2022-09-29T22:13:42.845Z,27.30
2022-09-29T22:16:13.064Z,23.65
2022-09-29T22:18:42.415Z,25.20
2022-09-29T22:21:11.846Z,24.23
2022-09-29T22:23:43.845Z,24.17
2022-09-29T22:26:13.948Z,22.55
2022-09-29T22:28:44.004Z,21.85
2022-09-29T22:31:13.862Z,21.88
2022-09-29T22:33:45.679Z,21.92
2022-09-29T22:36:14.341Z,21.98
2022-09-29T22:38:43.778Z,22.33
2022-09-29T22:41:13.143Z,21.20
2022-09-29T22:43:41.622Z,21.15
2022-09-29T22:46:10.933Z,22.35
2022-09-29T22:48:39.186Z,19.95
2022-09-29T22:51:07.702Z,20.95
2022-09-29T22:53:35.645Z,20.83
2022-09-29T22:56:12.244Z,20.90
2022-09-29T22:58:41.499Z,21.15
2022-09-29T23:01:13.603Z,22.30
2022-09-29T23:03:43.025Z,20.57
2022-09-29T23:06:11.616Z,20.70
2022-09-29T23:08:42.313Z,19.58
2022-09-29T23:11:17.499Z,20.17
2022-09-29T23:13:48.874Z,18.90
2022-09-29T23:16:19.587Z,19.25
2022-09-29T23:18:47.979Z,18.58
2022-09-29T23:21:19.244Z,19.38
2022-09-29T23:23:47.852Z,18.85
2022-09-29T23:26:17.745Z,19.70
2022-09-29T23:28:46.635Z,19.77
2022-09-29T23:31:15.181Z,20.40
2022-09-29T23:33:43.378Z,20.85
2022-09-29T23:36:13.278Z,19.85
2022-09-29T23:39:00.895Z,19.42
2022-09-29T23:41:31.194Z,20.13
2022-09-29T23:44:01.121Z,20.33
2022-09-29T23:46:32.472Z,20.17
2022-09-29T23:49:00.830Z,19.50
2022-09-29T23:51:31.105Z,19.45
2022-09-29T23:53:59.934Z,19.58
2022-09-29T23:56:32.262Z,18.88
2022-09-29T23:59:00.212Z,20.52
